Time;durP1;ratioP1;P1;durP2;ratioP2;P2;SDS_P1;SDS_P2;PMS_P1;PMS_P2;Temp;Humidity;BMP_temperature;BMP_pressure;BME280_temperature;BME280_humidity;BME280_pressure;Samples;Min_cycle;Max_cycle;Signal;HPM_P1;HPM_P2
2022/09/07 00:02:00;;;;;;;8.02;4.25;;;;;;;26.84;51.06;101117.97;4944456;29;20610;-81
2022/09/07 00:04:27;;;;;;;9.05;4.03;;;;;;;26.83;51.13;101115.50;4929462;29;20071;-82
2022/09/07 00:06:54;;;;;;;9.70;3.50;;;;;;;26.99;51.00;101152.97;4944529;29;20063;-81
2022/09/07 00:09:21;;;;;;;9.07;4.45;;;;;;;26.76;50.82;101120.19;4944499;29;20256;-81
2022/09/07 00:11:47;;;;;;;9.10;4.43;;;;;;;27.03;50.87;101145.97;4944279;29;20405;-81
2022/09/07 00:14:14;;;;;;;9.15;4.53;;;;;;;26.85;50.71;101135.16;4929724;29;20095;-81
2022/09/07 00:16:41;;;;;;;7.35;4.00;;;;;;;26.91;51.19;101156.00;4943944;29;20051;-81
2022/09/07 00:19:08;;;;;;;9.27;3.78;;;;;;;26.88;51.33;101151.03;4944257;29;20494;-81
2022/09/07 00:21:36;;;;;;;8.90;4.63;;;;;;;26.29;51.73;101060.06;4943908;29;20086;-82
2022/09/07 00:24:02;;;;;;;9.95;4.15;;;;;;;26.79;52.14;101153.25;4929385;29;20075;-82
2022/09/07 00:26:30;;;;;;;7.28;3.85;;;;;;;26.58;51.83;101135.53;4944297;29;20066;-83
2022/09/07 00:28:59;;;;;;;8.02;4.65;;;;;;;25.92;51.85;101033.72;4929031;29;20060;-81
2022/09/07 00:31:26;;;;;;;12.40;4.93;;;;;;;26.51;51.54;101129.31;4951131;29;20071;-82
2022/09/07 00:33:57;;;;;;;8.40;4.47;;;;;;;26.59;51.81;101131.72;4935185;29;20047;-81
2022/09/07 00:36:25;;;;;;;10.30;4.70;;;;;;;26.72;51.54;101154.41;4944075;29;20056;-81
2022/09/07 00:38:52;;;;;;;6.57;3.67;;;;;;;26.00;51.90;101041.59;4928355;29;20047;-81
2022/09/07 00:41:19;;;;;;;9.35;5.22;;;;;;;26.49;52.13;101136.88;4944083;29;20051;-81
2022/09/07 00:43:53;;;;;;;6.57;4.50;;;;;;;26.62;52.13;101154.94;4928074;29;20055;-82
2022/09/07 00:46:28;;;;;;;11.60;4.90;;;;;;;26.39;52.50;101120.25;4928961;29;20440;-82
2022/09/07 00:49:06;;;;;;;6.30;3.60;;;;;;;26.57;52.28;101166.53;4927805;29;20056;-82
2022/09/07 00:51:45;;;;;;;9.32;4.40;;;;;;;26.42;51.81;101152.44;4943943;29;20051;-81
2022/09/07 00:54:21;;;;;;;12.50;4.93;;;;;;;26.50;51.85;101160.28;4943782;29;20496;-81
2022/09/07 00:56:51;;;;;;;9.38;4.15;;;;;;;26.15;52.16;101103.78;4943740;29;20075;-82
2022/09/07 00:59:24;;;;;;;9.25;4.43;;;;;;;26.36;52.38;101140.59;4929665;29;20118;-81
2022/09/07 01:01:51;;;;;;;11.02;4.35;;;;;;;26.48;52.66;101162.41;4943809;29;20115;-81
2022/09/07 01:04:18;;;;;;;6.35;3.97;;;;;;;25.97;52.46;101079.28;4945085;28;20495;-81
2022/09/07 01:06:45;;;;;;;11.52;4.70;;;;;;;26.38;52.49;101137.63;4947468;29;20067;-81
2022/09/07 01:09:15;;;;;;;10.02;4.45;;;;;;;26.54;53.03;101167.00;4947420;29;20107;-81
2022/09/07 01:11:49;;;;;;;7.57;4.45;;;;;;;26.41;52.96;101145.34;4947385;29;20496;-81
2022/09/07 01:14:29;;;;;;;10.88;4.75;;;;;;;26.41;52.91;101156.25;4947738;29;20082;-81
2022/09/07 01:17:38;;;;;;;12.02;4.43;;;;;;;25.08;52.90;100951.81;4947496;29;20059;-81
2022/09/07 01:20:08;;;;;;;9.88;4.75;;;;;;;26.38;52.93;101179.28;4947260;29;20083;-81
2022/09/07 01:22:54;;;;;;;5.93;4.13;;;;;;;26.25;53.22;101170.44;4947162;29;20122;-81
2022/09/07 01:25:30;;;;;;;8.85;5.07;;;;;;;26.32;53.05;101188.38;4931137;29;20519;-81
2022/09/07 01:28:08;;;;;;;10.60;4.75;;;;;;;26.19;53.51;101164.88;4947018;29;20060;-81
2022/09/07 01:30:37;;;;;;;17.85;4.35;;;;;;;26.22;53.23;101167.13;4947158;29;20119;-81
2022/09/07 01:33:10;;;;;;;10.02;4.13;;;;;;;26.04;53.48;101145.34;4947105;29;20590;-81
2022/09/07 01:35:42;;;;;;;6.25;4.72;;;;;;;25.85;53.26;101117.28;4947067;29;20051;-81
2022/09/07 01:38:41;;;;;;;9.82;4.53;;;;;;;26.29;53.66;101182.53;4931221;29;20055;-81
2022/09/07 01:41:21;;;;;;;14.07;4.50;;;;;;;26.26;53.61;101185.72;4932232;29;20055;-82
2022/09/07 01:44:00;;;;;;;10.25;5.10;;;;;;;26.25;53.42;101178.63;4930668;29;20055;-81
2022/09/07 01:46:48;;;;;;;13.63;5.82;;;;;;;26.17;53.42;101149.81;4932003;29;20106;-81
2022/09/07 01:49:21;;;;;;;9.18;4.30;;;;;;;26.20;53.31;101155.63;4946657;29;20130;-82
2022/09/07 01:51:53;;;;;;;6.45;4.35;;;;;;;26.22;52.79;101161.69;4946712;29;20047;-81
2022/09/07 01:54:34;;;;;;;9.90;4.13;;;;;;;26.24;52.94;101161.47;4932282;29;20142;-81
2022/09/07 01:57:06;;;;;;;6.43;4.20;;;;;;;25.49;52.82;101036.50;4931663;29;20082;-81
2022/09/07 02:00:04;;;;;;;8.00;4.10;;;;;;;26.03;52.25;101129.25;4946437;29;20106;-82
2022/09/07 02:02:39;;;;;;;6.85;4.32;;;;;;;26.24;52.24;101161.47;4946121;29;20587;-81
2022/09/07 02:05:20;;;;;;;6.72;3.47;;;;;;;25.83;51.54;101084.03;4930632;29;20574;-81
2022/09/07 02:07:55;;;;;;;13.13;4.22;;;;;;;26.29;51.27;101152.59;4931663;29;20047;-81
2022/09/07 02:10:27;;;;;;;10.80;4.30;;;;;;;26.26;51.50;101150.34;4930517;29;20123;-80
2022/09/07 02:13:02;;;;;;;7.18;3.50;;;;;;;26.19;51.19;101137.66;4946155;29;20103;-81
2022/09/07 02:15:41;;;;;;;5.30;3.33;;;;;;;25.98;51.05;101109.00;4945552;28;20047;-81
2022/09/07 02:18:12;;;;;;;9.88;3.90;;;;;;;25.98;50.88;101113.63;4930415;29;20115;-81
2022/09/07 02:20:45;;;;;;;8.77;3.67;;;;;;;25.95;51.46;101103.19;4931449;29;20071;-82
2022/09/07 02:23:19;;;;;;;8.93;3.50;;;;;;;26.03;51.27;101111.03;4945983;29;20352;-81
2022/09/07 02:25:53;;;;;;;8.40;3.92;;;;;;;26.14;51.60;101134.78;4931546;29;20051;-81
2022/09/07 02:28:33;;;;;;;8.38;3.72;;;;;;;26.00;51.58;101115.06;4931462;29;20048;-81
2022/09/07 02:31:00;;;;;;;8.48;3.58;;;;;;;26.18;50.75;101135.97;4946255;29;20103;-81
2022/09/07 02:33:27;;;;;;;11.32;4.18;;;;;;;26.05;50.45;101103.50;4931707;29;20083;-80
2022/09/07 02:35:54;;;;;;;7.68;3.42;;;;;;;26.15;51.22;101136.44;4950160;29;20051;-81
2022/09/07 02:38:21;;;;;;;3.35;3.05;;;;;;;25.56;51.66;101051.69;4938717;29;20051;-81
2022/09/07 02:40:56;;;;;;;5.20;2.85;;;;;;;26.04;50.36;101115.41;4936535;29;20154;-81
2022/09/07 02:43:27;;;;;;;6.28;3.80;;;;;;;25.79;51.46;101077.38;4929721;29;20058;-81
2022/09/07 02:46:35;;;;;;;7.25;3.00;;;;;;;26.01;51.79;101121.31;4929863;29;20310;-81
2022/09/07 02:49:02;;;;;;;7.85;3.20;;;;;;;25.92;51.63;101125.38;4921684;29;20076;-81
2022/09/07 02:51:56;;;;;;;5.07;3.10;;;;;;;25.87;51.63;101136.09;4910484;29;20508;-80
2022/09/07 02:54:41;;;;;;;7.47;3.28;;;;;;;25.80;51.42;101123.41;4911800;29;20052;-82
2022/09/07 02:57:15;;;;;;;6.95;3.83;;;;;;;25.85;51.58;101124.59;4910658;29;20568;-81
2022/09/07 02:59:51;;;;;;;8.95;3.22;;;;;;;25.81;51.79;101126.94;4912043;29;20052;-81
2022/09/07 03:02:42;;;;;;;8.57;3.22;;;;;;;25.66;50.79;101119.13;4910305;29;20115;-81
2022/09/07 03:05:24;;;;;;;9.23;3.63;;;;;;;25.40;50.67;101076.72;4912155;29;20112;-81
2022/09/07 03:08:03;;;;;;;7.50;3.40;;;;;;;25.74;50.81;101118.84;4926169;29;20048;-82
2022/09/07 03:10:30;;;;;;;8.77;4.10;;;;;;;25.79;50.90;101129.88;4926257;29;20111;-81
2022/09/07 03:12:57;;;;;;;11.05;4.35;;;;;;;25.53;50.72;101073.03;4926053;29;20524;-81
2022/09/07 03:15:26;;;;;;;6.60;4.18;;;;;;;25.49;50.59;101050.09;4926066;29;20464;-81
2022/09/07 03:17:53;;;;;;;11.63;4.47;;;;;;;25.05;50.92;100986.72;4925773;29;20522;-81
2022/09/07 03:20:21;;;;;;;6.60;4.38;;;;;;;25.87;50.98;101117.91;4911124;29;20060;-81
2022/09/07 03:22:50;;;;;;;8.82;4.95;;;;;;;25.75;51.35;101104.22;4911166;29;20056;-82
2022/09/07 03:25:17;;;;;;;8.00;4.40;;;;;;;25.58;51.52;101062.31;4925937;29;20106;-81
2022/09/07 03:27:44;;;;;;;9.13;5.55;;;;;;;25.51;51.96;101045.25;4925872;29;20059;-81
2022/09/07 03:30:12;;;;;;;6.03;4.60;;;;;;;25.75;51.79;101089.75;4911313;29;20052;-82
2022/09/07 03:32:38;;;;;;;10.88;5.70;;;;;;;25.75;52.26;101085.16;4925914;29;20375;-82
2022/09/07 03:35:06;;;;;;;7.13;5.38;;;;;;;25.73;52.14;101068.25;4926240;29;20044;-81
2022/09/07 03:37:37;;;;;;;9.77;5.72;;;;;;;25.65;52.22;101054.94;4935363;29;20052;-81
2022/09/07 03:40:06;;;;;;;10.37;5.23;;;;;;;25.78;53.02;101090.16;4944710;29;20412;-81
2022/09/07 03:42:34;;;;;;;9.63;5.60;;;;;;;25.88;53.48;101116.03;4929170;29;20143;-81
2022/09/07 03:45:00;;;;;;;10.40;4.95;;;;;;;25.86;53.63;101118.13;4929024;29;20106;-81
2022/09/07 03:47:27;;;;;;;14.77;6.57;;;;;;;25.85;54.02;101121.88;4928659;29;20067;-81
2022/09/07 03:49:54;;;;;;;14.52;6.32;;;;;;;25.75;54.05;101093.34;4928935;29;20115;-81
2022/09/07 03:52:20;;;;;;;11.52;5.40;;;;;;;25.71;54.53;101094.00;4928979;29;20055;-81
2022/09/07 03:54:47;;;;;;;9.82;5.95;;;;;;;25.81;54.86;101113.34;4928614;29;20491;-81
2022/09/07 03:57:14;;;;;;;12.45;5.85;;;;;;;24.88;55.22;100973.72;4928698;29;20055;-81
2022/09/07 03:59:40;;;;;;;11.48;5.32;;;;;;;25.69;55.15;101112.41;4944226;29;20342;-81
2022/09/07 04:02:07;;;;;;;9.93;4.72;;;;;;;25.68;55.05;101117.03;4944044;29;20060;-80
2022/09/07 04:04:34;;;;;;;8.98;5.60;;;;;;;25.67;54.43;101095.50;4944170;29;20043;-81
2022/09/07 04:07:00;;;;;;;13.80;6.25;;;;;;;25.56;54.65;101078.06;4944326;29;20555;-81
2022/09/07 04:09:27;;;;;;;9.52;5.57;;;;;;;25.68;54.52;101114.31;4944137;29;20447;-80
2022/09/07 04:11:54;;;;;;;14.07;6.15;;;;;;;25.53;54.22;101092.06;4929799;29;20051;-81
2022/09/07 04:14:21;;;;;;;15.27;5.45;;;;;;;25.87;54.19;101144.28;4944385;29;20734;-81
2022/09/07 04:16:47;;;;;;;10.38;5.45;;;;;;;25.86;54.25;101142.63;4944477;29;20296;-82
2022/09/07 04:19:16;;;;;;;9.55;5.38;;;;;;;25.86;54.53;101148.88;4944014;29;20143;-81
2022/09/07 04:21:45;;;;;;;7.75;4.47;;;;;;;25.88;54.54;101152.22;4928405;29;20741;-80
2022/09/07 04:24:16;;;;;;;16.08;5.35;;;;;;;25.87;53.66;101152.44;4928260;29;20048;-80
2022/09/07 04:26:43;;;;;;;7.63;4.97;;;;;;;25.41;53.95;101083.81;4928566;29;20059;-80
2022/09/07 04:29:11;;;;;;;8.68;5.07;;;;;;;25.34;52.77;101086.59;4943913;29;20048;-80
2022/09/07 04:31:38;;;;;;;10.27;4.50;;;;;;;25.78;53.01;101166.28;4943841;29;20210;-81
2022/09/07 04:34:06;;;;;;;9.93;4.18;;;;;;;25.68;53.26;101152.38;4944037;29;20574;-80
2022/09/07 04:36:32;;;;;;;6.75;4.05;;;;;;;25.76;53.04;101162.97;4944146;29;20492;-81
2022/09/07 04:39:02;;;;;;;13.93;3.88;;;;;;;25.70;52.92;101163.84;4946132;29;20088;-82
2022/09/07 04:41:30;;;;;;;8.43;3.50;;;;;;;25.69;53.26;101164.09;4937385;29;20048;-81
2022/09/07 04:44:01;;;;;;;13.75;4.72;;;;;;;25.37;52.87;101113.34;4931763;29;20059;-81
2022/09/07 04:46:32;;;;;;;;;;;;;;;25.63;53.09;101165.78;4928794;29;20633;-81
2022/09/07 04:49:01;;;;;;;16.92;5.40;;;;;;;25.59;53.39;101176.28;4960118;28;19923;-81
2022/09/07 04:51:31;;;;;;;13.98;4.65;;;;;;;25.59;53.35;101151.00;4929885;29;20080;-81
2022/09/07 04:54:03;;;;;;;9.50;4.80;;;;;;;25.57;53.62;101172.13;4943610;29;20421;-81
2022/09/07 04:56:30;;;;;;;11.75;5.35;;;;;;;25.42;54.04;101163.47;4928547;29;20073;-80
2022/09/07 04:58:59;;;;;;;8.80;4.93;;;;;;;25.09;54.40;101121.03;4928897;29;20110;-81
2022/09/07 05:01:26;;;;;;;11.43;5.03;;;;;;;25.35;54.64;101180.66;4929498;29;20052;-82
2022/09/07 05:03:53;;;;;;;9.50;4.78;;;;;;;25.35;55.00;101180.66;4946833;29;20061;-81
2022/09/07 05:06:21;;;;;;;10.07;6.15;;;;;;;25.09;55.25;101153.63;4931214;29;20518;-80
2022/09/07 05:08:51;;;;;;;15.88;5.38;;;;;;;25.00;55.57;101147.66;4947010;29;20511;-81
2022/09/07 05:11:20;;;;;;;11.43;5.10;;;;;;;25.09;55.65;101169.94;4931387;29;20114;-82
2022/09/07 05:13:59;;;;;;;12.27;5.22;;;;;;;24.81;56.39;101130.41;4946383;29;20418;-81
2022/09/07 05:16:26;;;;;;;14.45;5.78;;;;;;;25.06;56.27;101175.81;4930967;29;20093;-82
2022/09/07 05:18:56;;;;;;;8.93;5.32;;;;;;;24.92;56.47;101165.00;4947860;29;20156;-80
2022/09/07 05:21:26;;;;;;;13.45;4.40;;;;;;;24.89;55.57;101162.75;4928492;29;20501;-81
2022/09/07 05:23:55;;;;;;;15.40;4.47;;;;;;;24.95;55.35;101191.75;4947074;29;20047;-81
2022/09/07 05:26:23;;;;;;;6.38;3.83;;;;;;;24.89;55.32;101180.94;4948355;29;20059;-81
2022/09/07 05:28:50;;;;;;;24.77;5.40;;;;;;;24.77;55.43;101171.78;4947621;29;20114;-82
2022/09/07 05:31:22;;;;;;;11.07;4.57;;;;;;;24.84;55.18;101184.28;4946874;29;20308;-81
2022/09/07 05:33:56;;;;;;;19.23;4.97;;;;;;;24.85;55.33;101185.13;4931191;29;20082;-82
2022/09/07 05:36:42;;;;;;;9.75;4.70;;;;;;;24.82;55.47;101190.97;4947487;29;20340;-81
2022/09/07 05:39:09;;;;;;;13.93;5.00;;;;;;;24.51;55.24;101144.53;4931135;29;20123;-81
2022/09/07 05:41:36;;;;;;;13.07;4.80;;;;;;;24.92;55.55;101213.06;4952395;29;20079;-82
2022/09/07 05:44:04;;;;;;;12.10;5.18;;;;;;;24.77;55.16;101186.19;4928294;29;20054;-82
2022/09/07 05:46:51;;;;;;;11.35;6.07;;;;;;;24.97;54.81;101205.09;4932891;29;20039;-82
2022/09/07 05:49:18;;;;;;;7.10;4.30;;;;;;;24.95;55.32;101210.78;4930666;28;20067;-83
2022/09/07 05:51:44;;;;;;;13.73;4.97;;;;;;;24.90;54.72;101205.16;4948082;29;20297;-82
2022/09/07 05:54:11;;;;;;;11.50;5.00;;;;;;;25.05;54.91;101218.44;4951770;29;20055;-81
2022/09/07 05:56:38;;;;;;;13.85;4.70;;;;;;;24.47;54.22;101108.06;4949869;29;20055;-81
2022/09/07 05:59:05;;;;;;;11.43;5.30;;;;;;;25.10;54.67;101226.78;4934087;29;20059;-81
2022/09/07 06:01:34;;;;;;;7.57;4.63;;;;;;;25.01;53.64;101183.78;4934549;29;20260;-82
2022/09/07 06:04:01;;;;;;;7.78;4.35;;;;;;;25.06;53.83;101206.53;4950757;29;20058;-80
2022/09/07 06:06:27;;;;;;;8.90;4.88;;;;;;;25.10;54.21;101209.66;4949835;29;20055;-81
2022/09/07 06:08:56;;;;;;;11.63;5.10;;;;;;;25.12;54.10;101207.53;4933307;29;20113;-81
2022/09/07 06:11:25;;;;;;;7.25;4.55;;;;;;;25.07;54.13;101193.75;4950237;29;20063;-82
2022/09/07 06:13:51;;;;;;;10.07;5.28;;;;;;;25.16;54.24;101216.91;4949926;29;20557;-81
2022/09/07 06:16:19;;;;;;;13.35;4.90;;;;;;;25.16;54.25;101209.59;4950121;29;20243;-81
2022/09/07 06:18:48;;;;;;;13.30;4.95;;;;;;;25.25;53.95;101218.34;4949975;29;20055;-82
2022/09/07 06:21:21;;;;;;;9.63;4.88;;;;;;;25.19;53.90;101208.34;4949852;29;20059;-81
2022/09/07 06:23:48;;;;;;;12.23;4.82;;;;;;;25.11;53.97;101190.41;4950979;29;20290;-81
2022/09/07 06:26:16;;;;;;;10.52;5.25;;;;;;;25.35;53.97;101212.44;4934505;29;20530;-82
2022/09/07 06:28:45;;;;;;;10.55;5.00;;;;;;;25.32;54.00;101213.72;4949757;29;20043;-82
2022/09/07 06:31:18;;;;;;;12.30;4.43;;;;;;;24.19;53.89;101023.41;4951186;29;20047;-83
2022/09/07 06:33:49;;;;;;;10.40;4.60;;;;;;;24.85;53.58;101128.09;4949781;29;20091;-82
2022/09/07 06:36:19;;;;;;;13.35;4.75;;;;;;;25.47;53.79;101218.00;4949526;29;20136;-83
2022/09/07 06:38:48;;;;;;;13.32;5.18;;;;;;;25.27;53.50;101183.66;4950990;29;20133;-83
2022/09/07 06:41:20;;;;;;;13.75;5.38;;;;;;;25.49;53.53;101197.69;4933572;29;20061;-82
2022/09/07 06:44:07;;;;;;;10.60;4.40;;;;;;;24.35;53.73;101033.78;4952138;29;20552;-82
2022/09/07 06:46:34;;;;;;;7.32;4.45;;;;;;;25.57;53.77;101205.56;4958977;29;20062;-82
2022/09/07 06:49:22;;;;;;;7.90;5.43;;;;;;;25.59;53.37;101208.91;4957146;29;20110;-82
2022/09/07 06:51:49;;;;;;;10.38;5.57;;;;;;;25.71;53.37;101222.63;4934050;29;20054;-83
2022/09/07 06:54:16;;;;;;;9.88;5.00;;;;;;;25.68;53.23;101209.47;4935547;29;20055;-81
2022/09/07 06:57:07;;;;;;;11.65;4.93;;;;;;;25.79;52.11;101192.41;4948993;29;20051;-79
2022/09/07 06:59:35;;;;;;;18.40;5.25;;;;;;;25.96;52.33;101232.69;4949085;29;20481;-80
2022/09/07 07:02:06;;;;;;;12.82;4.40;;;;;;;25.88;52.37;101231.09;4929453;29;20118;-81
2022/09/07 07:04:32;;;;;;;9.85;4.03;;;;;;;25.78;52.38;101212.53;4945704;29;20054;-82
2022/09/07 07:07:11;;;;;;;17.33;4.97;;;;;;;25.94;53.31;101253.84;4945087;29;20052;-82
2022/09/07 07:09:38;;;;;;;8.93;3.90;;;;;;;25.86;52.56;101216.88;4945129;29;20146;-81
2022/09/07 07:12:05;;;;;;;11.85;5.07;;;;;;;26.12;52.42;101250.31;4943993;29;20508;-81
2022/09/07 07:14:32;;;;;;;10.60;4.97;;;;;;;26.17;51.78;101245.88;4943698;29;20501;-82
2022/09/07 07:17:01;;;;;;;12.77;5.20;;;;;;;25.97;52.16;101209.84;4924231;29;20055;-81
2022/09/07 07:19:28;;;;;;;9.20;4.43;;;;;;;26.11;51.72;101227.72;4924503;29;20504;-82
2022/09/07 07:21:55;;;;;;;16.13;4.97;;;;;;;26.10;52.13;101225.25;4909429;29;20063;-82
2022/09/07 07:24:41;;;;;;;11.25;4.97;;;;;;;26.27;52.16;101252.72;4928213;29;20107;-82
2022/09/07 07:27:08;;;;;;;14.82;5.15;;;;;;;26.06;51.64;101208.53;4929998;29;20059;-81
2022/09/07 07:29:35;;;;;;;22.10;5.05;;;;;;;25.91;50.97;101169.97;4945117;29;20423;-78
2022/09/07 07:32:03;;;;;;;15.57;4.93;;;;;;;26.27;51.03;101209.16;4929876;29;20047;-82
2022/09/07 07:34:29;;;;;;;10.75;5.45;;;;;;;26.13;50.76;101192.97;4929509;29;20064;-81
2022/09/07 07:36:56;;;;;;;9.30;5.03;;;;;;;25.33;49.88;101057.75;4929977;29;20058;-81
2022/09/07 07:39:23;;;;;;;9.38;4.75;;;;;;;26.50;50.18;101244.69;4945075;29;20047;-81
2022/09/07 07:42:11;;;;;;;12.23;6.55;;;;;;;26.53;49.73;101241.56;4942280;29;20058;-81
2022/09/07 07:44:37;;;;;;;9.10;5.85;;;;;;;26.38;49.64;101217.38;4929106;29;20162;-81
2022/09/07 07:47:04;;;;;;;10.32;5.22;;;;;;;26.53;49.83;101262.47;4930364;29;20056;-81
2022/09/07 07:49:31;;;;;;;9.27;5.18;;;;;;;26.54;49.71;101248.66;4944502;29;20054;-80
2022/09/07 07:51:58;;;;;;;7.85;5.18;;;;;;;26.43;49.74;101219.44;4944459;29;20435;-81
2022/09/07 07:54:45;;;;;;;10.52;5.45;;;;;;;26.36;49.68;101214.09;4929362;29;20047;-84
2022/09/07 07:57:12;;;;;;;6.70;5.40;;;;;;;26.59;50.08;101256.97;4933430;29;20044;-80
2022/09/07 07:59:38;;;;;;;11.98;6.78;;;;;;;26.65;50.90;101266.13;4942342;29;20095;-79
2022/09/07 08:02:08;;;;;;;9.35;6.63;;;;;;;26.69;50.73;101277.41;4943857;29;20062;-79
2022/09/07 08:04:35;;;;;;;10.20;6.35;;;;;;;26.52;51.54;101260.81;4929408;29;20052;-80
2022/09/07 08:07:03;;;;;;;13.40;7.55;;;;;;;26.16;51.49;101195.22;4936162;29;20052;-82
2022/09/07 08:09:39;;;;;;;20.30;8.73;;;;;;;26.84;51.49;101275.94;4943403;29;20677;-81
2022/09/07 08:12:06;;;;;;;14.27;7.47;;;;;;;26.77;51.65;101258.03;4944127;29;20351;-81
2022/09/07 08:14:42;;;;;;;11.50;7.78;;;;;;;26.88;51.68;101275.50;4943778;28;20118;-80
2022/09/07 08:17:11;;;;;;;11.57;7.05;;;;;;;26.62;51.69;101242.91;4929502;29;20134;-83
2022/09/07 08:19:44;;;;;;;17.02;7.53;;;;;;;26.68;52.20;101254.78;4929351;29;20055;-81
2022/09/07 08:22:11;;;;;;;19.73;8.40;;;;;;;26.76;51.94;101256.38;4941230;29;20051;-82
2022/09/07 08:24:38;;;;;;;15.95;9.27;;;;;;;26.99;52.07;101289.19;4944213;29;20134;-81
2022/09/07 08:27:06;;;;;;;17.92;9.45;;;;;;;26.91;54.15;101275.88;4943876;29;20138;-81
2022/09/07 08:29:32;;;;;;;26.25;13.32;;;;;;;26.91;54.36;101285.94;4928612;29;20491;-81
2022/09/07 08:32:03;;;;;;;22.60;12.75;;;;;;;27.11;54.74;101291.13;4944432;29;20054;-81
2022/09/07 08:34:29;;;;;;;15.85;10.98;;;;;;;26.71;54.53;101205.31;4948122;29;20073;-80
2022/09/07 08:36:56;;;;;;;21.60;13.55;;;;;;;26.77;55.26;101228.06;4947498;29;20059;-81
2022/09/07 08:39:23;;;;;;;20.02;12.35;;;;;;;27.17;55.45;101280.16;4945243;29;20220;-80
2022/09/07 08:42:17;;;;;;;20.45;13.18;;;;;;;27.29;55.88;101293.88;4944205;29;20048;-79
2022/09/07 08:45:16;;;;;;;31.52;12.02;;;;;;;26.78;56.64;101216.13;4944274;29;20051;-81
2022/09/07 08:47:49;;;;;;;17.17;11.48;;;;;;;27.41;56.75;101297.47;4926991;29;20066;-80
2022/09/07 08:50:24;;;;;;;21.10;14.43;;;;;;;27.36;56.97;101280.97;4916555;29;20055;-80
2022/09/07 08:53:00;;;;;;;16.98;12.60;;;;;;;27.29;56.03;101261.16;4914823;29;20044;-81
2022/09/07 08:55:39;;;;;;;27.63;13.43;;;;;;;27.02;57.00;101201.56;4925746;29;20048;-79
2022/09/07 08:58:16;;;;;;;24.35;13.93;;;;;;;27.47;55.48;101258.34;4909373;29;20059;-81
2022/09/07 09:01:11;;;;;;;21.15;14.73;;;;;;;27.41;57.18;101264.75;4922120;29;20527;-81
2022/09/07 09:03:58;;;;;;;20.70;14.18;;;;;;;26.61;56.79;101128.78;4922033;29;20555;-80
2022/09/07 09:06:56;;;;;;;26.33;18.95;;;;;;;26.79;58.00;101157.84;4909867;29;20630;-80
2022/09/07 09:09:23;;;;;;;25.17;15.60;;;;;;;27.65;58.36;101287.47;4941725;28;20445;-80
2022/09/07 09:12:10;;;;;;;27.17;18.38;;;;;;;27.57;59.21;101265.16;4925914;29;20485;-81
2022/09/07 09:14:42;;;;;;;28.25;17.52;;;;;;;27.79;59.33;101288.06;4910549;29;20586;-81
2022/09/07 09:17:21;;;;;;;35.13;23.23;;;;;;;27.81;60.08;101274.22;4925153;29;20135;-80
2022/09/07 09:19:54;;;;;;;34.80;21.50;;;;;;;27.57;59.77;101230.50;4941163;29;20048;-80
2022/09/07 09:22:25;;;;;;;31.70;20.58;;;;;;;28.01;60.11;101291.13;4910558;29;20054;-80
2022/09/07 09:24:55;;;;;;;28.95;19.45;;;;;;;27.59;59.82;101200.28;4911424;29;20084;-81
2022/09/07 09:27:21;;;;;;;25.92;18.83;;;;;;;27.68;59.92;101209.81;4944440;29;20074;-82
2022/09/07 09:29:48;;;;;;;33.50;20.55;;;;;;;28.27;59.47;101272.59;4914298;29;20277;-81
2022/09/07 09:32:40;;;;;;;32.47;19.17;;;;;;;28.44;59.06;101279.00;4913764;29;20056;-78
2022/09/07 09:35:22;;;;;;;41.33;23.13;;;;;;;28.46;58.66;101276.91;4912866;29;20155;-81
2022/09/07 09:37:48;;;;;;;23.33;17.73;;;;;;;28.27;58.77;101209.81;4955695;28;20283;-81
2022/09/07 09:40:21;;;;;;;24.42;17.83;;;;;;;28.75;58.31;101266.88;4947529;29;20146;-80
2022/09/07 09:43:16;;;;;;;25.08;18.35;;;;;;;28.72;57.95;101237.31;4947475;29;20500;-82
2022/09/07 09:45:47;;;;;;;29.23;18.33;;;;;;;29.06;57.44;101258.47;4932738;29;20051;-81
2022/09/07 09:48:38;;;;;;;21.33;15.23;;;;;;;29.17;56.84;101239.28;4930671;29;20062;-83
2022/09/07 09:51:06;;;;;;;30.83;18.02;;;;;;;29.54;54.93;101233.41;4932690;29;20414;-79
2022/09/07 09:54:15;;;;;;;29.65;17.50;;;;;;;29.54;55.11;101233.41;4932564;29;20051;-81
2022/09/07 09:56:44;;;;;;;25.90;15.73;;;;;;;29.57;55.26;101208.28;4951218;29;20060;-80
2022/09/07 09:59:17;;;;;;;26.52;15.00;;;;;;;29.60;55.29;101187.81;4931373;29;20083;-80
2022/09/07 10:02:31;;;;;;;29.23;19.08;;;;;;;29.92;54.71;101228.28;4929123;29;20086;-81
2022/09/07 10:05:35;;;;;;;26.63;17.17;;;;;;;30.08;54.92;101226.63;4940777;29;20047;-82
2022/09/07 10:08:13;;;;;;;21.33;15.65;;;;;;;30.20;53.76;101216.38;4946962;29;20353;-83
2022/09/07 10:10:57;;;;;;;31.30;17.88;;;;;;;30.18;53.65;101205.66;4946726;29;20059;-82
2022/09/07 10:13:30;;;;;;;25.52;19.38;;;;;;;30.53;53.00;101225.59;4931350;29;20264;-82
2022/09/07 10:16:02;;;;;;;28.58;20.13;;;;;;;30.00;52.95;101143.84;4930853;29;20143;-80
2022/09/07 10:18:33;;;;;;;27.05;19.02;;;;;;;30.62;53.26;101219.41;4932262;29;20054;-81
2022/09/07 10:21:31;;;;;;;27.60;17.13;;;;;;;30.78;53.10;101231.41;4932360;29;20092;-80
2022/09/07 10:24:10;;;;;;;24.88;15.02;;;;;;;30.70;52.19;101185.25;4948603;29;20066;-80
2022/09/07 10:26:38;;;;;;;22.85;14.13;;;;;;;30.31;51.32;101111.38;4931418;29;20464;-79
2022/09/07 10:29:34;;;;;;;24.23;14.32;;;;;;;31.15;50.47;101219.75;4931579;29;20488;-79
2022/09/07 10:32:38;;;;;;;24.23;16.67;;;;;;;31.32;51.06;101216.91;4933014;29;20064;-81
2022/09/07 10:36:02;;;;;;;20.80;16.50;;;;;;;31.56;50.20;101209.19;4918036;29;20058;-81
2022/09/07 10:39:17;;;;;;;21.70;14.88;;;;;;;31.53;50.08;101198.72;4893491;29;20224;-83
2022/09/07 10:42:13;;;;;;;22.80;13.38;;;;;;;31.19;49.49;101116.69;4877759;29;20074;-82
2022/09/07 10:45:22;;;;;;;18.83;14.65;;;;;;;32.02;49.36;101211.44;4913537;29;20052;-79
2022/09/07 10:48:19;;;;;;;18.65;13.65;;;;;;;32.02;48.54;101217.78;4921028;29;20067;-81
2022/09/07 10:50:49;;;;;;;22.98;14.93;;;;;;;32.27;46.82;101213.53;4946231;29;20119;-82
2022/09/07 10:53:30;;;;;;;17.55;12.38;;;;;;;31.37;47.00;101060.59;4955722;29;20079;-81
2022/09/07 10:56:10;;;;;;;22.38;14.80;;;;;;;31.14;46.57;101017.91;4959666;29;20067;-80
2022/09/07 10:59:00;;;;;;;20.35;16.90;;;;;;;32.18;46.88;101188.47;4936711;29;20127;-82
2022/09/07 11:01:57;;;;;;;15.70;13.48;;;;;;;32.44;47.07;101208.66;4947693;29;20324;-81
2022/09/07 11:04:51;;;;;;;20.73;11.95;;;;;;;32.04;47.04;101141.47;4933103;29;20106;-81
2022/09/07 11:07:42;;;;;;;27.38;15.27;;;;;;;32.48;46.18;101198.78;4949556;29;20620;-81
2022/09/07 11:10:34;;;;;;;22.40;16.42;;;;;;;32.74;45.84;101196.97;4949275;29;20055;-78
2022/09/07 11:13:04;;;;;;;18.95;14.60;;;;;;;32.69;45.71;101168.66;4939513;29;20047;-78
2022/09/07 11:15:38;;;;;;;19.52;13.73;;;;;;;32.36;45.42;101091.03;4949155;29;20076;-80
2022/09/07 11:18:12;;;;;;;24.02;14.63;;;;;;;32.53;45.87;101113.66;4949593;29;20545;-79
2022/09/07 11:20:53;;;;;;;19.48;14.77;;;;;;;33.05;45.64;101174.25;4950820;29;20057;-80
2022/09/07 11:23:43;;;;;;;;;;;;;;;33.19;44.47;101186.38;4935073;29;20058;-80
2022/09/07 11:26:24;;;;;;;20.55;13.88;;;;;;;32.99;43.76;101116.47;4933700;29;19922;-78
2022/09/07 11:29:18;;;;;;;22.50;14.68;;;;;;;33.12;44.79;101156.38;4950619;29;20043;-79
2022/09/07 11:32:10;;;;;;;22.88;15.02;;;;;;;33.19;44.63;101165.19;4951199;29;20047;-79
2022/09/07 11:34:49;;;;;;;16.52;12.52;;;;;;;33.21;44.58;101153.91;4933834;29;20166;-78
2022/09/07 11:37:23;;;;;;;17.25;13.15;;;;;;;33.34;44.55;101161.59;4948906;29;20051;-78
2022/09/07 11:40:02;;;;;;;20.52;13.82;;;;;;;32.94;44.04;101050.47;4950672;29;20133;-78
2022/09/07 11:42:33;;;;;;;;;;;;;;;33.70;42.93;101145.09;4960887;29;20146;-79
2022/09/07 11:45:25;;;;;;;20.05;10.13;;;;;;;34.08;41.86;101150.19;4963407;28;19923;-79
2022/09/07 11:47:59;;;;;;;25.73;13.30;;;;;;;34.05;42.37;101132.31;4948801;28;20047;-78
2022/09/07 11:50:31;;;;;;;24.15;13.90;;;;;;;34.24;41.95;101135.28;4949204;29;20300;-79
2022/09/07 11:53:25;;;;;;;18.40;12.27;;;;;;;34.37;42.22;101128.34;4949908;29;20380;-80